Data for 08/09/2016

Time Sea-Level Adjusted Pressure Absolute Pressure Temperature Relative Humidity Dew Point   
(mb) (inHg) (mb) (inHg) (C) (F) (%) (C) (F)
00:05 1015 29.97 844 24.92 13.8 56.8 48 3.1 37.6
00:10 1015 29.97 844 24.92 14.3 57.8 45 2.7 36.9
00:15 1015 29.97 844 24.92 14.4 58 46 3.2 37.7
00:20 1015 29.97 844 24.92 14.3 57.7 47 3.1 37.6
00:25 1015 29.97 844 24.92 14.2 57.6 46 2.8 37.1
00:30 1015 29.97 844 24.92 14.3 57.8 46 2.9 37.3
00:35 1015 29.97 844 24.92 14.9 58.8 44 2.9 37.1
00:40 1015 29.97 844 24.92 14.6 58.2 45 3 37.4
00:45 1015 29.97 844 24.92 14.3 57.7 45 2.5 36.4
00:50 1015 29.97 844 24.92 14.1 57.4 47 3.1 37.6
00:55 1015 29.97 844 24.92 13.8 56.8 48 3.1 37.6
01:00 1015 29.97 844 24.92 13.7 56.6 48 3.1 37.5
01:05 1015 29.97 844 24.92 13.3 56 50 3.1 37.5
01:10 1015 29.97 844 24.92 13.1 55.6 50 3 37.4
01:15 1015 29.97 844 24.92 13.3 56 48 2.5 36.5
01:20 1015 29.97 844 24.92 13.7 56.6 46 2.5 36.4
01:25 1015 29.97 844 24.92 13.9 57 47 2.9 37.2
01:30 1015 29.97 844 24.92 13.5 56.3 48 2.8 37
01:35 1015 29.97 844 24.92 13.5 56.4 48 2.8 37
01:40 1015 29.97 844 24.92 13.2 55.7 50 3 37.5
01:45 1015 29.97 844 24.92 13.3 55.9 49 2.8 37
01:50 1015 29.97 844 24.92 13.6 56.4 47 2.7 36.8
01:55 1015 29.97 844 24.92 12.9 55.1 53 3.7 38.6
02:00 1015 29.97 844 24.92 12.4 54.4 47 1.4 34.6
02:05 1014 29.94 844 24.92 13.6 56.5 48 2.9 37.2
02:10 1014 29.94 844 24.92 12.7 54.9 53 3.4 38.1
02:15 1014 29.94 844 24.92 12.6 54.7 50 2.5 36.5
02:20 1014 29.94 844 24.92 13 55.3 47 2 35.6
02:25 1015 29.97 844 24.92 14.2 57.5 47 3 37.3
02:30 1015 29.97 844 24.92 13.6 56.4 50 3.3 37.9
02:35 1015 29.97 844 24.92 14.2 57.5 44 2.1 35.9
02:40 1015 29.97 844 24.92 14.4 58 46 3.1 37.7
02:45 1015 29.97 844 24.92 13.9 57 50 3.6 38.5
02:50 1015 29.97 844 24.92 13.7 56.7 46 2.4 36.4
02:55 1015 29.97 844 24.92 13.8 56.8 50 3.7 38.6
03:00 1015 29.97 844 24.92 13.2 55.7 49 2.8 37.1
03:05 1015 29.97 844 24.92 14 57.2 48 3.1 37.6
03:10 1015 29.97 844 24.92 13.7 56.7 51 3.8 38.8
03:15 1015 29.97 844 24.92 13.2 55.8 52 3.6 38.4
03:20 1015 29.97 844 24.92 13.1 55.5 52 3.6 38.5
03:25 1015 29.97 844 24.92 13.1 55.5 54 4 39.1
03:30 1015 29.97 844 24.92 13.1 55.6 52 3.5 38.2
03:35 1015 29.97 844 24.92 13.2 55.7 52 3.6 38.5
03:40 1015 29.97 844 24.92 12.8 55.1 53 3.5 38.2
03:45 1015 29.97 844 24.92 12.2 53.9 55 3.5 38.3
03:50 1015 29.97 844 24.92 11.7 53.1 56 3.2 37.8
03:55 1015 29.97 844 24.92 11.7 53.1 57 3.5 38.2
04:00 1015 29.97 845 24.95 12 53.6 57 3.9 39
04:05 1015 29.97 844 24.92 11.5 52.8 57 3.5 38.3
04:10 1015 29.97 844 24.92 12 53.6 55 3.4 38.1
04:15 1015 29.97 844 24.92 12.4 54.3 54 3.4 38.2
04:20 1015 29.97 844 24.92 12.5 54.4 53 3.2 37.8
04:25 1015 29.97 845 24.95 12.9 55.2 54 3.9 39.1
04:30 1015 29.97 845 24.95 12.3 54.2 57 4.1 39.3
04:35 1015 29.97 844 24.92 12.6 54.7 53 3.5 38.3
04:40 1015 29.97 845 24.95 13.2 55.8 53 4 39.2
04:45 1015 29.97 845 24.95 13.1 55.6 54 4.1 39.3
04:50 1015 29.97 845 24.95 13.4 56 53 4 39.2
04:55 1016 30 845 24.95 13.3 55.9 53 3.9 39.1
05:00 1016 30 845 24.95 13.1 55.6 54 4.1 39.4
05:05 1015 29.97 844 24.92 13.2 55.7 54 4.2 39.6
05:10 1015 29.97 844 24.92 13.2 55.8 53 4 39.2
05:15 1015 29.97 844 24.92 14 57.2 51 4.1 39.3
05:20 1015 29.97 844 24.92 14.2 57.6 52 4.7 40.4
05:25 1015 29.97 844 24.92 13.8 56.8 54 4.8 40.6
05:30 1015 29.97 844 24.92 12.9 55.3 58 4.8 40.7
05:35 1015 29.97 844 24.92 13.2 55.7 53 4 39.1
05:40 1015 29.97 844 24.92 14.6 58.2 50 4.3 39.7
05:45 1015 29.97 844 24.92 15.1 59.2 48 4.4 39.9
05:50 1015 29.97 844 24.92 15.3 59.5 48 4.4 40
05:55 1015 29.97 844 24.92 15.3 59.6 48 4.4 39.9
06:00 1015 29.97 844 24.92 15.4 59.7 47 4.3 39.7
06:05 1015 29.97 844 24.92 15.4 59.7 48 4.5 40.2
06:10 1015 29.97 844 24.92 15.4 59.7 48 4.5 40.1
06:15 1015 29.97 844 24.92 15.4 59.7 47 4.4 39.9
06:20 1015 29.97 844 24.92 15.6 60 47 4.5 40.1
06:25 1015 29.97 844 24.92 15.6 60 47 4.5 40.1
06:30 1014 29.94 844 24.92 15.6 60.1 47 4.4 40
06:35 1014 29.94 844 24.92 15.8 60.4 47 4.5 40.2
06:40 1014 29.94 844 24.92 15.8 60.5 47 4.6 40.3
06:45 1015 29.97 844 24.92 15.9 60.6 46 4.5 40.1
06:50 1015 29.97 844 24.92 16 60.9 46 4.6 40.3
06:55 1015 29.97 844 24.92 16 60.8 47 4.8 40.6
07:00 1014 29.94 844 24.92 15.9 60.6 48 4.9 40.8
07:05 1014 29.94 843 24.89 15.9 60.6 47 4.7 40.4
07:10 1014 29.94 843 24.89 16.1 61 46 4.7 40.5
07:15 1014 29.94 843 24.89 16.5 61.6 46 4.8 40.6
07:20 1014 29.94 843 24.89 16.7 62 46 5.1 41.2
07:25 1014 29.94 843 24.89 16.6 61.8 47 5.2 41.3
07:30 1014 29.94 843 24.89 16.5 61.7 46 5 41
07:35 1013 29.91 843 24.89 16.5 61.6 47 5.2 41.3
07:40 1014 29.94 843 24.89 16.4 61.5 47 5 41.1
07:45 1014 29.94 843 24.89 16.6 62 46 5.1 41.1
07:50 1014 29.94 843 24.89 17 62.6 45 5.1 41.1
07:55 1014 29.94 843 24.89 17.2 63 45 5.4 41.8
08:00 1014 29.94 843 24.89 16.9 62.4 46 5.2 41.4
08:05 1014 29.94 843 24.89 16.8 62.3 46 5.3 41.5
08:10 1014 29.94 843 24.89 16.8 62.2 46 5.3 41.5
08:15 1014 29.94 843 24.89 16.7 62 47 5.3 41.6
08:20 1014 29.94 843 24.89 16.6 61.8 47 5.4 41.7
08:25 1014 29.94 843 24.89 16.5 61.6 48 5.4 41.8
08:30 1014 29.94 843 24.89 16.5 61.7 48 5.6 42.1
08:35 1014 29.94 843 24.89 16.5 61.7 48 5.7 42.2
08:40 1015 29.97 844 24.92 16.7 62 48 5.7 42.2
08:45 1015 29.97 844 24.92 16.5 61.7 50 6.2 43.2
08:50 1015 29.97 844 24.92 15.1 59.2 54 5.9 42.6
08:55 1015 29.97 844 24.92 14.5 58.2 55 5.7 42.3
09:00 1015 29.97 844 24.92 14.5 58.1 55 5.6 42.1
09:05 1015 29.97 844 24.92 14.7 58.4 54 5.6 42
09:10 1015 29.97 844 24.92 15.3 59.6 54 6.1 43
09:15 1015 29.97 844 24.92 15.4 59.6 53 6 42.9
09:20 1015 29.97 844 24.92 15.8 60.4 52 6.1 43
09:25 1015 29.97 844 24.92 16.1 61 52 6.3 43.3
09:30 1015 29.97 844 24.92 16.1 61 52 6.3 43.3
09:35 1015 29.97 844 24.92 16.5 61.7 49 5.9 42.7
09:40 1015 29.97 844 24.92 16.8 62.2 48 6 42.7
09:45 1015 29.97 844 24.92 17.5 63.6 46 5.9 42.6
09:50 1015 29.97 844 24.92 17.7 63.8 47 6.4 43.4
09:55 1015 29.97 844 24.92 18.2 64.8 44 6 42.7
10:00 1015 29.97 844 24.92 18.6 65.5 45 6.5 43.6
10:05 1015 29.97 844 24.92 18.7 65.6 44 6.4 43.4
10:10 1015 29.97 844 24.92 19.1 66.3 42 6.1 42.9
10:15 1015 29.97 844 24.92 19.4 66.8 40 5.6 42.1
10:20 1015 29.97 844 24.92 19.7 67.4 40 6 42.7
10:25 1015 29.97 844 24.92 19.8 67.7 39 5.6 42.1
10:30 1015 29.97 844 24.92 20.4 68.8 37 5.4 41.7
10:35 1015 29.97 844 24.92 20.8 69.4 36 5.4 41.7
10:40 1015 29.97 844 24.92 20.2 68.3 40 6.2 43.1
10:45 1014 29.94 844 24.92 19.7 67.5 39 5.6 42.1
10:50 1014 29.94 844 24.92 20.5 68.9 35 4.7 40.5
10:55 1014 29.94 844 24.92 21.7 71 34 5.3 41.6
11:00 1014 29.94 843 24.89 21.9 71.5 33 5.3 41.6
11:05 1014 29.94 843 24.89 22.3 72.2 33 5.4 41.8
11:10 1014 29.94 843 24.89 22.6 72.7 32 5.4 41.7
11:15 1014 29.94 843 24.89 22.8 73.1 33 6 42.7
11:20 1014 29.94 843 24.89 22.4 72.3 34 6.1 42.9
11:25 1014 29.94 843 24.89 21.8 71.2 34 5.5 41.9
11:30 1014 29.94 843 24.89 22.9 73.2 32 5.4 41.7
11:35 1014 29.94 843 24.89 23.3 73.9 31 5.5 41.8
11:40 1014 29.94 843 24.89 23.3 73.9 31 5.6 42.1
11:45 1014 29.94 843 24.89 23.8 74.9 31 5.9 42.5
11:50 1014 29.94 843 24.89 23.6 74.4 30 5.2 41.4
11:55 1014 29.94 843 24.89 24.3 75.8 29 5.5 41.9
12:00 1014 29.94 843 24.89 23.6 74.5 31 5.5 41.9
12:05 1014 29.94 843 24.89 23.1 73.6 32 5.6 42
12:10 1014 29.94 843 24.89 22.9 73.2 31 5 41
12:15 1014 29.94 843 24.89 23 73.5 30 4.7 40.5
12:20 1014 29.94 843 24.89 23.6 74.5 28 4.3 39.8
12:25 1014 29.94 843 24.89 24.1 75.4 27 4.3 39.8
12:30 1014 29.94 843 24.89 25 77.1 25 3.9 39
12:35 1014 29.94 843 24.89 25.1 77.1 26 4.3 39.8
12:40 1014 29.94 843 24.89 24.8 76.7 27 4.8 40.7
12:45 1014 29.94 843 24.89 24.2 75.6 26 3.9 39
12:50 1014 29.94 843 24.89 24.4 75.8 27 4.1 39.4
12:55 1013 29.91 843 24.89 24.2 75.6 28 5 40.9
13:00 1013 29.91 843 24.89 23.8 74.8 28 4.5 40.1
13:05 1013 29.91 843 24.89 24 75.1 26 3.4 38.1
13:10 1013 29.91 843 24.89 24.9 76.7 25 3.7 38.7
13:15 1013 29.91 842 24.86 25.2 77.3 24 3.2 37.8
13:20 1013 29.91 842 24.86 25.8 78.4 24 3.8 38.8
13:25 1013 29.91 842 24.86 25.8 78.5 24 3.7 38.7
13:30 1013 29.91 842 24.86 25.9 78.6 24 4.2 39.6
13:35 1013 29.91 842 24.86 26.3 79.3 20 2.1 35.8
13:40 1013 29.91 842 24.86 25.9 78.7 22 2.9 37.2
13:45 1013 29.91 842 24.86 25.5 77.8 18 0 32
13:50 1013 29.91 842 24.86 26.1 79 20 1.9 35.3
13:55 1013 29.91 842 24.86 26.4 79.6 19 1.3 34.3
14:00 1013 29.91 842 24.86 26.4 79.5 20 1.9 35.5
14:05 1013 29.91 842 24.86 26.1 79 18 0.5 33
14:10 1013 29.91 842 24.86 26.5 79.6 19 1.2 34.1
14:15 1012 29.88 842 24.86 26 78.8 19 0.9 33.6
14:20 1012 29.88 842 24.86 25.8 78.4 20 1.3 34.4
14:25 1012 29.88 842 24.86 26.1 78.9 18 0.2 32.4
14:30 1012 29.88 841 24.83 26.4 79.5 18 0.7 33.3
14:35 1012 29.88 841 24.83 26.9 80.4 18 1.1 34
14:40 1012 29.88 841 24.83 27.3 81.2 17 0.6 33
14:45 1012 29.88 841 24.83 27.1 80.8 18 0.9 33.6
14:50 1012 29.88 841 24.83 26.4 79.4 18 0.3 32.6
14:55 1012 29.88 841 24.83 26.7 80 16 -0.8 30.6
15:00 1012 29.88 841 24.83 26.4 79.6 18 0.2 32.3
15:05 1012 29.88 841 24.83 26.6 79.8 18 0.3 32.6
15:10 1012 29.88 841 24.83 26.6 79.9 18 0.3 32.5
15:15 1012 29.88 841 24.83 26.7 80.1 18 0.5 32.8
15:20 1012 29.88 841 24.83 26.6 79.8 16 -0.8 30.6
15:25 1012 29.88 841 24.83 26.8 80.3 17 0 32.1
15:30 1012 29.88 841 24.83 26.9 80.3 15 -1.4 29.4
15:35 1011 29.85 841 24.83 26.8 80.2 16 -1.3 29.7
15:40 1011 29.85 841 24.83 26.8 80.2 15 -1.4 29.5
15:45 1011 29.85 841 24.83 27.8 82.1 15 -0.9 30.4
15:50 1011 29.85 841 24.83 28.1 82.7 14 -1.6 29.1
15:55 1011 29.85 841 24.83 27.6 81.6 15 -0.7 30.7
16:00 1011 29.85 841 24.83 28 82.5 13 -2.6 27.3
16:05 1011 29.85 841 24.83 27.8 82.1 12 -4.4 24.2
16:10 1011 29.85 841 24.83 28 82.4 11 -5.5 22.1
16:15 1011 29.85 841 24.83 27.6 81.7 10 -5.9 21.3
16:20 1011 29.85 840 24.81 27.6 81.6 10 -6 21.2
16:25 1011 29.85 840 24.81 27.7 81.9 10 -7.1 19.3
16:30 1011 29.85 840 24.81 27.6 81.7 10 -6.6 20
16:35 1011 29.85 840 24.81 27.5 81.6 10 -6.2 20.9
16:40 1011 29.85 840 24.81 27.4 81.4 11 -5.4 22.2
16:45 1011 29.85 841 24.83 27.8 82 10 -6.1 21
16:50 1011 29.85 841 24.83 28.1 82.5 10 -6 21.3
16:55 1011 29.85 841 24.83 27.7 81.8 10 -6.4 20.5
17:00 1011 29.85 840 24.81 27.5 81.5 10 -6.2 20.8
17:05 1011 29.85 840 24.81 27.6 81.6 10 -6.1 21.1
17:10 1011 29.85 840 24.81 27.2 81 11 -5.5 22.1
17:15 1011 29.85 841 24.83 26.9 80.4 11 -5.3 22.5
17:20 1011 29.85 840 24.81 27.1 80.7 11 -5.2 22.6
17:25 1011 29.85 840 24.81 27.2 80.9 11 -5.1 22.8
17:30 1011 29.85 840 24.81 27.1 80.8 11 -6.2 20.8
17:35 1011 29.85 840 24.81 27.3 81.1 11 -5.7 21.8
17:40 1011 29.85 841 24.83 27 80.6 11 -5.3 22.5
17:45 1011 29.85 841 24.83 27 80.5 11 -5.9 21.3
17:50 1011 29.85 840 24.81 26.9 80.5 11 -5.4 22.4
17:55 1011 29.85 840 24.81 26.8 80.2 11 -6.1 21
18:00 1011 29.85 840 24.81 26.7 80.1 12 -5.3 22.4
18:05 1011 29.85 841 24.83 26.5 79.7 11 -5.5 22.1
18:10 1011 29.85 841 24.83 26.5 79.7 12 -4.9 23.1
18:15 1011 29.85 841 24.83 26.5 79.7 11 -5.9 21.5
18:20 1011 29.85 841 24.83 26.5 79.7 12 -5.4 22.2
18:25 1011 29.85 841 24.83 26.4 79.6 12 -5.3 22.5
18:30 1011 29.85 841 24.83 26.4 79.4 11 -5.8 21.6
18:35 1011 29.85 841 24.83 26.3 79.3 12 -5.7 21.8
18:40 1011 29.85 841 24.83 26.3 79.3 11 -5.9 21.5
18:45 1011 29.85 841 24.83 26.2 79.2 11 -6 21.2
18:50 1012 29.88 841 24.83 26.1 79 12 -5.8 21.5
18:55 1012 29.88 841 24.83 26 78.7 11 -6.2 20.9
19:00 1012 29.88 841 24.83 26 78.8 11 -6.2 20.9
19:05 1012 29.88 841 24.83 25.8 78.4 12 -5.8 21.5
19:10 1012 29.88 841 24.83 25.7 78.3 11 -7.3 18.9
19:15 1012 29.88 841 24.83 25.7 78.3 9 -9.1 15.7
19:20 1012 29.88 841 24.83 25.5 77.9 9 -8.9 16
19:25 1012 29.88 841 24.83 25.5 78 9 -9 15.9
19:30 1012 29.88 841 24.83 25.4 77.8 10 -8.8 16.2
19:35 1012 29.88 841 24.83 25.2 77.4 10 -8.2 17.3
19:40 1012 29.88 841 24.83 25 76.9 10 -8.1 17.4
19:45 1012 29.88 841 24.83 24.7 76.5 10 -9.1 15.7
19:50 1012 29.88 841 24.83 25.1 77.2 9 -9.2 15.4
19:55 1012 29.88 841 24.83 24.9 76.8 10 -8.4 16.9
20:00 1012 29.88 841 24.83 24.4 75.9 10 -8.4 16.8
20:05 1012 29.88 841 24.83 24.3 75.8 11 -8.3 17
20:10 1012 29.88 841 24.83 24.1 75.3 11 -8.4 16.9
20:15 1012 29.88 841 24.83 24 75.2 11 -8.2 17.3
20:20 1012 29.88 842 24.86 23.8 74.8 11 -7.9 17.9
20:25 1012 29.88 842 24.86 23.5 74.3 12 -7.8 18
20:30 1013 29.91 842 24.86 23.1 73.7 13 -6.6 20
20:35 1013 29.91 842 24.86 22.3 72.2 20 -1.5 29.3
20:40 1013 29.91 842 24.86 21.3 70.3 22 -1.1 30
20:45 1013 29.91 842 24.86 20.4 68.6 27 0.7 33.3
20:50 1013 29.91 842 24.86 19.7 67.4 29 1.5 34.7
20:55 1013 29.91 842 24.86 19.1 66.5 32 2.1 35.7
21:00 1013 29.91 842 24.86 18.7 65.6 34 2.9 37.1
21:05 1013 29.91 842 24.86 18.1 64.6 40 4.5 40.1
21:10 1013 29.91 842 24.86 17.2 63 44 5 41
21:15 1013 29.91 842 24.86 16.7 62 46 5.2 41.3
21:20 1013 29.91 843 24.89 16.4 61.5 48 5.3 41.6
21:25 1014 29.94 843 24.89 16 60.8 49 5.4 41.8
21:30 1014 29.94 843 24.89 15.7 60.2 51 5.5 42
21:35 1014 29.94 843 24.89 15.3 59.5 52 5.7 42.2
21:40 1014 29.94 843 24.89 15.1 59.2 53 5.6 42
21:45 1014 29.94 844 24.92 15.1 59.1 53 5.6 42
21:50 1015 29.97 844 24.92 15.1 59.2 53 5.8 42.4
21:55 1015 29.97 844 24.92 15.1 59.1 55 6.1 43
22:00 1015 29.97 844 24.92 15 58.9 56 6.3 43.3
22:05 1015 29.97 844 24.92 14.8 58.6 57 6.6 43.8
22:10 1015 29.97 844 24.92 14.7 58.4 59 6.8 44.2
22:15 1015 29.97 845 24.95 14.7 58.4 60 7 44.6
22:20 1016 30 845 24.95 14.6 58.4 61 7.2 44.9
22:25 1016 30 845 24.95 14.6 58.4 61 7.3 45.2
22:30 1016 30 845 24.95 14.6 58.3 61 7.4 45.2
22:35 1016 30 845 24.95 14.6 58.3 61 7.2 45
22:40 1016 30 846 24.98 14.6 58.2 59 6.7 44
22:45 1016 30 846 24.98 14.6 58.3 58 6.6 43.9
22:50 1017 30.03 846 24.98 14.5 58.2 58 6.4 43.6
22:55 1017 30.03 846 24.98 14.4 57.9 58 6.3 43.3
23:00 1017 30.03 846 24.98 14.3 57.7 58 6.2 43.1
23:05 1017 30.03 846 24.98 14.1 57.4 58 6.1 42.9
23:10 1017 30.03 846 24.98 14.1 57.3 58 6 42.9
23:15 1017 30.03 846 24.98 14 57.2 59 6.1 43
23:20 1017 30.03 846 24.98 13.9 57.1 59 6.2 43.1
23:25 1017 30.03 846 24.98 13.9 57.1 59 6.2 43.1
23:30 1017 30.03 846 24.98 13.9 56.9 59 6 42.8
23:35 1017 30.03 846 24.98 13.8 56.9 59 6 42.7
23:40 1017 30.03 847 25.01 13.8 56.8 59 5.9 42.6
23:45 1017 30.03 847 25.01 13.7 56.6 59 5.9 42.5
23:50 1017 30.03 847 25.01 13.6 56.4 59 5.7 42.3
23:55 1018 30.06 847 25.01 13.6 56.4 59 5.7 42.2
24:00 1018 30.06 847 25.01 13.5 56.2 58 5.5 41.9